createdAt,value
2023-01-29T00:01:54.656Z,88.15
2023-01-29T00:04:21.075Z,88.38
2023-01-29T00:06:47.511Z,88.19
2023-01-29T00:09:14.530Z,88.18
2023-01-29T00:11:41.055Z,87.98
2023-01-29T00:14:07.958Z,88.11
2023-01-29T00:16:34.367Z,88.59
2023-01-29T00:19:02.299Z,88.84
2023-01-29T00:21:30.998Z,88.05
2023-01-29T00:23:57.983Z,87.58
2023-01-29T00:26:24.586Z,87.70
2023-01-29T00:28:51.098Z,87.96
2023-01-29T00:31:22.555Z,87.71
2023-01-29T00:33:49.433Z,88.16
2023-01-29T00:36:18.016Z,87.69
2023-01-29T00:38:44.574Z,87.51
2023-01-29T00:41:34.652Z,87.88
2023-01-29T00:44:20.423Z,87.89
2023-01-29T00:46:46.868Z,88.39
2023-01-29T00:49:13.455Z,88.10
2023-01-29T00:51:39.930Z,88.15
2023-01-29T00:54:09.662Z,88.01
2023-01-29T00:56:37.303Z,88.42
2023-01-29T00:59:04.446Z,87.96
2023-01-29T01:01:49.792Z,87.58
2023-01-29T01:04:16.208Z,87.54
2023-01-29T01:06:43.146Z,87.73
2023-01-29T01:09:29.162Z,87.64
2023-01-29T01:11:55.642Z,88.17
2023-01-29T01:14:22.038Z,88.16
2023-01-29T01:16:49.081Z,87.68
2023-01-29T01:19:18.257Z,87.54
2023-01-29T01:21:46.970Z,87.58
2023-01-29T01:24:13.476Z,87.89
2023-01-29T01:26:39.934Z,87.72
2023-01-29T01:29:06.588Z,87.45
2023-01-29T01:31:33.053Z,88.18
2023-01-29T01:33:59.449Z,88.09
2023-01-29T01:36:25.905Z,88.22
2023-01-29T01:38:52.434Z,87.90
2023-01-29T01:41:21.783Z,88.35
2023-01-29T01:43:58.550Z,88.22
2023-01-29T01:46:28.724Z,88.32
2023-01-29T01:49:02.193Z,88.42
2023-01-29T01:51:32.638Z,88.01
2023-01-29T01:54:06.474Z,88.39
2023-01-29T01:56:44.401Z,88.44
2023-01-29T01:59:13.202Z,88.02
2023-01-29T02:01:43.446Z,88.18
2023-01-29T02:04:41.114Z,88.30
2023-01-29T02:07:29.836Z,88.10
2023-01-29T02:10:16.820Z,87.95
2023-01-29T02:12:45.359Z,87.89
2023-01-29T02:15:13.610Z,87.51
2023-01-29T02:17:40.206Z,87.48
2023-01-29T02:20:18.644Z,87.54
2023-01-29T02:22:55.250Z,87.46
2023-01-29T02:25:59.225Z,87.98
2023-01-29T02:28:36.657Z,88.25
2023-01-29T02:31:12.511Z,87.95
2023-01-29T02:34:01.116Z,87.80
2023-01-29T02:36:35.808Z,87.83
2023-01-29T02:39:25.525Z,87.92
2023-01-29T02:42:03.085Z,88.17
2023-01-29T02:44:32.330Z,88.16
2023-01-29T02:47:12.471Z,88.06
2023-01-29T02:50:07.293Z,87.98
2023-01-29T02:52:43.174Z,88.16
2023-01-29T02:55:18.274Z,88.28
2023-01-29T02:57:46.489Z,87.95
2023-01-29T03:00:18.562Z,88.10
2023-01-29T03:02:52.305Z,87.65
2023-01-29T03:05:28.530Z,87.99
2023-01-29T03:08:02.738Z,87.75
2023-01-29T03:10:38.537Z,87.27
2023-01-29T03:13:18.002Z,88.15
2023-01-29T03:15:51.173Z,88.26
2023-01-29T03:18:31.708Z,88.13
2023-01-29T03:21:04.004Z,88.80
2023-01-29T03:23:53.598Z,88.44
2023-01-29T03:26:40.956Z,88.46
2023-01-29T03:29:28.310Z,88.00
2023-01-29T03:32:08.771Z,88.41
2023-01-29T03:34:42.026Z,88.44
2023-01-29T03:37:16.149Z,88.05
2023-01-29T03:39:42.650Z,87.75
2023-01-29T03:42:32.101Z,88.20
2023-01-29T03:45:05.328Z,88.16
2023-01-29T03:47:40.431Z,88.35
2023-01-29T03:50:29.755Z,88.43
2023-01-29T03:53:08.362Z,88.08
2023-01-29T03:55:44.826Z,87.96
2023-01-29T03:58:33.867Z,88.42
2023-01-29T04:01:05.005Z,88.32
2023-01-29T04:03:38.105Z,88.06
2023-01-29T04:06:11.242Z,87.84
2023-01-29T04:09:01.766Z,88.38
2023-01-29T04:11:29.298Z,88.60
2023-01-29T04:13:57.334Z,88.31
2023-01-29T04:16:31.848Z,88.12
2023-01-29T04:18:59.412Z,88.01
2023-01-29T04:21:27.013Z,88.06
2023-01-29T04:23:54.218Z,88.10
2023-01-29T04:26:50.718Z,88.26
2023-01-29T04:29:40.462Z,88.40
2023-01-29T04:32:31.769Z,88.28
2023-01-29T04:35:08.870Z,88.25
2023-01-29T04:37:50.475Z,88.78
2023-01-29T04:40:39.278Z,88.94
2023-01-29T04:43:19.782Z,88.85
2023-01-29T04:46:05.031Z,89.33
2023-01-29T04:49:06.558Z,88.89
2023-01-29T04:51:47.382Z,88.39
2023-01-29T04:54:27.077Z,88.86
2023-01-29T04:57:01.724Z,88.79
2023-01-29T04:59:45.688Z,88.95
2023-01-29T05:02:13.352Z,88.69
2023-01-29T05:04:41.736Z,88.76
2023-01-29T05:07:12.396Z,88.82
2023-01-29T05:09:42.067Z,88.95
2023-01-29T05:12:11.660Z,89.04
2023-01-29T05:14:41.352Z,88.86
2023-01-29T05:17:14.589Z,88.46
2023-01-29T05:19:41.176Z,88.92
2023-01-29T05:22:10.853Z,89.09
2023-01-29T05:24:37.507Z,89.01
2023-01-29T05:27:22.638Z,89.35
2023-01-29T05:29:49.199Z,89.26
2023-01-29T05:32:16.430Z,89.49
2023-01-29T05:34:43.016Z,89.65
2023-01-29T05:37:10.647Z,89.45
2023-01-29T05:39:37.019Z,89.83
2023-01-29T05:42:03.481Z,89.48
2023-01-29T05:44:29.879Z,89.40
2023-01-29T05:46:56.461Z,89.86
2023-01-29T05:49:22.866Z,89.69
2023-01-29T05:51:49.319Z,89.74
2023-01-29T05:54:15.747Z,89.72
2023-01-29T05:56:42.099Z,89.54
2023-01-29T05:59:08.735Z,88.99
2023-01-29T06:01:35.131Z,89.19
2023-01-29T06:04:01.717Z,89.49
2023-01-29T06:06:28.114Z,89.46
2023-01-29T06:08:55.968Z,89.33
2023-01-29T06:11:22.657Z,88.83
2023-01-29T06:13:49.122Z,89.31
2023-01-29T06:16:15.790Z,88.84
2023-01-29T06:18:42.642Z,89.31
2023-01-29T06:21:11.727Z,88.76
2023-01-29T06:23:38.497Z,88.38
2023-01-29T06:26:11.414Z,88.67
2023-01-29T06:28:38.023Z,88.42
2023-01-29T06:33:53.245Z,87.80
2023-01-29T06:36:19.630Z,87.69
2023-01-29T06:38:47.129Z,87.18
2023-01-29T06:41:17.688Z,87.76
2023-01-29T06:43:45.027Z,87.52
2023-01-29T06:46:11.600Z,87.65
2023-01-29T06:48:37.969Z,87.46
2023-01-29T06:51:06.091Z,87.38
2023-01-29T06:53:33.696Z,87.37
2023-01-29T06:56:00.174Z,87.31
2023-01-29T06:58:26.694Z,87.53
2023-01-29T07:00:53.285Z,87.73
2023-01-29T07:03:21.051Z,87.52
2023-01-29T07:05:52.533Z,87.54
2023-01-29T07:08:19.448Z,87.78
2023-01-29T07:10:45.907Z,87.70
2023-01-29T07:13:12.317Z,87.57
2023-01-29T07:15:38.689Z,87.66
2023-01-29T07:18:11.853Z,87.49
2023-01-29T07:20:40.520Z,87.98
2023-01-29T07:23:08.768Z,87.73
2023-01-29T07:25:35.177Z,87.72
2023-01-29T07:28:01.815Z,87.37
2023-01-29T07:30:28.531Z,87.47
2023-01-29T07:32:55.084Z,86.94
2023-01-29T07:35:21.936Z,86.86
2023-01-29T07:37:51.389Z,87.44
2023-01-29T07:40:18.499Z,86.90
2023-01-29T07:42:45.482Z,87.17
2023-01-29T07:45:12.179Z,86.67
2023-01-29T07:47:38.662Z,86.60
2023-01-29T07:50:05.777Z,86.50
2023-01-29T07:52:33.646Z,86.52
2023-01-29T07:55:00.050Z,86.35
2023-01-29T07:57:26.450Z,86.16
2023-01-29T07:59:52.780Z,86.30
2023-01-29T08:02:19.206Z,86.80
2023-01-29T08:04:45.631Z,86.99
2023-01-29T08:07:12.066Z,86.36
2023-01-29T08:09:38.439Z,86.63
2023-01-29T08:12:04.991Z,86.37
2023-01-29T08:14:31.467Z,86.45
2023-01-29T08:16:57.942Z,86.68
2023-01-29T08:19:24.348Z,86.47
2023-01-29T08:21:50.811Z,86.52
2023-01-29T08:24:17.325Z,86.32
2023-01-29T08:26:43.776Z,86.69
2023-01-29T08:29:11.563Z,86.12
2023-01-29T08:31:38.076Z,86.57
2023-01-29T08:34:04.562Z,86.16
2023-01-29T08:36:31.038Z,86.26
2023-01-29T08:38:57.474Z,86.57
2023-01-29T08:41:23.852Z,86.04
2023-01-29T08:43:50.286Z,86.12
2023-01-29T08:46:16.706Z,86.48
2023-01-29T08:48:43.206Z,86.24
2023-01-29T08:51:09.713Z,86.02
2023-01-29T08:53:36.055Z,85.84
2023-01-29T08:56:02.584Z,85.79
2023-01-29T08:58:29.014Z,86.03
2023-01-29T09:00:55.407Z,86.06
2023-01-29T09:03:21.879Z,86.15
2023-01-29T09:05:48.482Z,85.53
2023-01-29T09:08:15.474Z,85.35
2023-01-29T09:10:41.875Z,85.20
2023-01-29T09:13:09.281Z,85.31
2023-01-29T09:15:35.653Z,85.41
2023-01-29T09:18:05.606Z,85.61
2023-01-29T09:20:32.673Z,85.44
2023-01-29T09:23:03.306Z,85.39
2023-01-29T09:25:29.658Z,85.26
2023-01-29T09:27:56.023Z,85.09
2023-01-29T09:30:22.398Z,85.63
2023-01-29T09:32:53.511Z,85.38
2023-01-29T09:35:22.724Z,85.30
2023-01-29T09:37:49.995Z,84.73
2023-01-29T09:40:40.871Z,84.79
2023-01-29T09:43:18.182Z,83.84
2023-01-29T09:45:55.034Z,84.05
2023-01-29T09:48:25.237Z,84.11
2023-01-29T09:50:55.143Z,84.57
2023-01-29T09:53:29.443Z,84.35
2023-01-29T09:56:18.004Z,83.81
2023-01-29T09:58:44.577Z,83.25
2023-01-29T10:01:23.993Z,82.93
2023-01-29T10:04:21.251Z,82.43
2023-01-29T10:07:22.509Z,81.75
2023-01-29T10:10:23.762Z,82.20
2023-01-29T10:13:14.372Z,81.85
2023-01-29T10:15:55.179Z,81.39
2023-01-29T10:18:27.343Z,81.50
2023-01-29T10:21:02.152Z,81.57
2023-01-29T10:23:34.566Z,81.52
2023-01-29T10:26:01.623Z,80.96
2023-01-29T10:28:28.040Z,80.94
2023-01-29T10:30:59.853Z,81.69
2023-01-29T10:33:48.741Z,80.68
2023-01-29T10:36:28.656Z,81.03
2023-01-29T10:38:56.032Z,80.66
2023-01-29T10:42:05.443Z,80.59
2023-01-29T10:44:44.231Z,81.21
2023-01-29T10:47:38.242Z,81.60
2023-01-29T10:50:13.426Z,80.16
2023-01-29T10:52:45.737Z,79.30
2023-01-29T10:55:15.464Z,78.78
2023-01-29T10:57:51.089Z,77.65
2023-01-29T11:00:17.802Z,76.66
2023-01-29T11:02:48.220Z,76.58
2023-01-29T11:05:20.660Z,76.82
2023-01-29T11:07:49.393Z,77.56
2023-01-29T11:10:21.596Z,78.19
2023-01-29T11:12:48.073Z,78.81
2023-01-29T11:15:30.588Z,78.69
2023-01-29T11:18:14.106Z,79.03
2023-01-29T11:20:43.103Z,79.50
2023-01-29T11:23:42.004Z,79.17
2023-01-29T11:26:12.718Z,79.21
2023-01-29T11:28:40.458Z,79.49
2023-01-29T11:31:21.813Z,78.90
2023-01-29T11:33:50.391Z,79.34
2023-01-29T11:36:32.905Z,79.32
2023-01-29T11:39:08.045Z,79.36
2023-01-29T11:41:42.919Z,79.16
2023-01-29T11:44:41.080Z,79.25
2023-01-29T11:47:16.514Z,79.83
2023-01-29T11:49:49.592Z,79.33
2023-01-29T11:52:19.235Z,80.13
2023-01-29T11:54:51.958Z,79.56
2023-01-29T11:57:33.992Z,79.09
2023-01-29T12:00:07.776Z,79.03
2023-01-29T12:02:43.047Z,79.71
2023-01-29T12:05:22.112Z,78.86
2023-01-29T12:07:52.705Z,78.96
2023-01-29T12:10:30.627Z,79.23
2023-01-29T12:13:23.164Z,79.27
2023-01-29T12:15:49.801Z,79.39
2023-01-29T12:18:28.004Z,79.49
2023-01-29T12:21:03.775Z,79.54
2023-01-29T12:23:41.456Z,79.26
2023-01-29T12:26:15.911Z,79.20
2023-01-29T12:29:01.027Z,78.99
2023-01-29T12:31:53.426Z,78.86
2023-01-29T12:34:43.451Z,78.81
2023-01-29T12:37:40.901Z,78.91
2023-01-29T12:40:17.017Z,78.88
2023-01-29T12:42:49.657Z,78.83
2023-01-29T12:45:22.639Z,78.71
2023-01-29T12:47:56.114Z,78.86
2023-01-29T12:50:33.254Z,78.67
2023-01-29T12:53:05.144Z,78.75
2023-01-29T12:55:42.950Z,78.71
2023-01-29T12:58:20.067Z,78.59
2023-01-29T13:00:50.752Z,78.29
2023-01-29T13:03:53.022Z,78.69
2023-01-29T13:06:27.964Z,78.63
2023-01-29T13:08:58.782Z,79.07
2023-01-29T13:11:47.957Z,78.76
2023-01-29T13:14:25.179Z,78.94
2023-01-29T13:17:01.293Z,78.83
2023-01-29T13:19:33.500Z,78.47
2023-01-29T13:22:05.336Z,78.54
2023-01-29T13:24:38.806Z,78.21
2023-01-29T13:27:06.233Z,77.97
2023-01-29T13:29:33.287Z,77.93
2023-01-29T13:32:02.649Z,78.22
2023-01-29T13:34:32.803Z,78.03
2023-01-29T13:37:12.278Z,77.71
2023-01-29T13:39:46.397Z,78.20
2023-01-29T13:42:37.551Z,77.81
2023-01-29T13:45:07.093Z,77.88
2023-01-29T13:47:37.439Z,77.71
2023-01-29T13:50:24.284Z,77.77
2023-01-29T13:52:57.688Z,77.80
2023-01-29T13:55:40.098Z,77.59
2023-01-29T13:58:08.812Z,77.84
2023-01-29T14:00:35.146Z,77.87
2023-01-29T14:03:01.492Z,77.98
2023-01-29T14:05:31.042Z,78.25
2023-01-29T14:07:59.408Z,78.07
2023-01-29T14:10:29.837Z,78.14
2023-01-29T14:13:11.468Z,78.15
2023-01-29T14:15:41.848Z,78.23
2023-01-29T14:18:08.207Z,78.57
2023-01-29T14:20:45.919Z,78.43
2023-01-29T14:23:35.911Z,78.27
2023-01-29T14:26:05.320Z,78.15
2023-01-29T14:28:34.291Z,77.97
2023-01-29T14:31:01.288Z,78.23
2023-01-29T14:33:36.749Z,78.12
2023-01-29T14:36:11.315Z,78.40
2023-01-29T14:38:39.310Z,78.18
2023-01-29T14:41:29.582Z,78.31
2023-01-29T14:44:37.802Z,78.45
2023-01-29T14:47:04.874Z,78.20
2023-01-29T14:49:57.748Z,78.32
2023-01-29T14:52:33.148Z,78.53
2023-01-29T14:55:02.662Z,78.53
2023-01-29T14:57:30.588Z,78.62
2023-01-29T15:00:01.616Z,78.59
2023-01-29T15:02:37.025Z,78.30
2023-01-29T15:05:10.659Z,78.56
2023-01-29T15:07:51.731Z,78.41
2023-01-29T15:10:38.058Z,79.15
2023-01-29T15:13:32.819Z,78.65
2023-01-29T15:16:17.586Z,79.01
2023-01-29T15:18:44.175Z,79.03
2023-01-29T15:21:13.217Z,79.02
2023-01-29T15:23:40.816Z,78.97
2023-01-29T15:26:11.682Z,78.82
2023-01-29T15:28:39.206Z,78.90
2023-01-29T15:31:11.888Z,79.12
2023-01-29T15:33:41.059Z,79.19
2023-01-29T15:36:11.808Z,79.48
2023-01-29T15:38:38.231Z,79.20
2023-01-29T15:41:20.584Z,79.65
2023-01-29T15:43:56.533Z,79.72
2023-01-29T15:46:28.194Z,79.71
2023-01-29T15:48:57.141Z,80.06
2023-01-29T15:51:27.936Z,80.26
2023-01-29T15:54:00.599Z,80.01
2023-01-29T15:56:36.930Z,79.97
2023-01-29T15:59:09.758Z,80.36
2023-01-29T16:01:36.412Z,80.09
2023-01-29T16:04:03.830Z,79.87
2023-01-29T16:06:36.995Z,79.23
2023-01-29T16:09:05.142Z,79.59
2023-01-29T16:11:33.189Z,79.51
2023-01-29T16:14:01.219Z,79.50
2023-01-29T16:16:28.358Z,79.30
2023-01-29T16:19:00.351Z,79.39
2023-01-29T16:21:37.806Z,78.76
2023-01-29T16:24:13.870Z,78.87
2023-01-29T16:26:45.263Z,78.82
2023-01-29T16:29:16.975Z,78.81
2023-01-29T16:31:45.748Z,78.60
2023-01-29T16:34:25.781Z,78.39
2023-01-29T16:36:54.396Z,78.84
2023-01-29T16:39:24.064Z,78.47
2023-01-29T16:42:21.484Z,78.53
2023-01-29T16:44:52.213Z,78.56
2023-01-29T16:47:33.693Z,78.53
2023-01-29T16:50:20.278Z,78.32
2023-01-29T16:53:10.746Z,78.29
2023-01-29T16:55:41.035Z,78.34
2023-01-29T16:58:20.052Z,78.35
2023-01-29T17:00:52.669Z,78.16
2023-01-29T17:03:20.075Z,78.06
2023-01-29T17:05:47.271Z,78.18
2023-01-29T17:08:30.385Z,78.42
2023-01-29T17:10:56.930Z,78.56
2023-01-29T17:13:38.472Z,78.58
2023-01-29T17:16:20.114Z,78.79
2023-01-29T17:18:46.533Z,78.72
2023-01-29T17:21:12.878Z,79.03
2023-01-29T17:23:39.761Z,78.79
2023-01-29T17:26:13.318Z,79.13
2023-01-29T17:28:40.942Z,79.16
2023-01-29T17:31:07.903Z,79.08
2023-01-29T17:33:43.261Z,79.18
2023-01-29T17:36:15.340Z,79.24
2023-01-29T17:38:42.303Z,79.43
2023-01-29T17:41:15.862Z,79.31
2023-01-29T17:43:44.086Z,79.44
2023-01-29T17:46:13.486Z,79.30
2023-01-29T17:48:40.343Z,78.88
2023-01-29T17:51:12.550Z,79.32
2023-01-29T17:53:47.338Z,79.01
2023-01-29T17:56:21.097Z,79.02
2023-01-29T17:58:47.443Z,78.88
2023-01-29T18:01:13.911Z,78.85
2023-01-29T18:03:40.318Z,78.96
2023-01-29T18:06:09.035Z,78.92
2023-01-29T18:08:37.932Z,79.11
2023-01-29T18:11:04.607Z,78.92
2023-01-29T18:13:31.215Z,79.05
2023-01-29T18:15:57.677Z,78.96
2023-01-29T18:18:24.413Z,78.92
2023-01-29T18:20:51.071Z,78.94
2023-01-29T18:23:17.867Z,79.18
2023-01-29T18:25:44.783Z,79.01
2023-01-29T18:28:17.141Z,79.28
2023-01-29T18:30:46.910Z,78.92
2023-01-29T18:33:14.301Z,79.02
2023-01-29T18:35:40.755Z,78.83
2023-01-29T18:38:07.415Z,79.06
2023-01-29T18:40:33.776Z,79.20
2023-01-29T18:43:00.824Z,79.53
2023-01-29T18:45:28.470Z,79.18
2023-01-29T18:47:55.615Z,79.16
2023-01-29T18:50:26.142Z,79.24
2023-01-29T18:52:53.786Z,79.18
2023-01-29T18:55:20.789Z,79.41
2023-01-29T18:58:25.238Z,79.46
2023-01-29T19:00:33.865Z,79.32
2023-01-29T19:03:00.735Z,79.33
2023-01-29T19:05:27.136Z,79.70
2023-01-29T19:07:53.574Z,79.52
2023-01-29T19:10:19.936Z,79.62
2023-01-29T19:12:46.432Z,79.48
2023-01-29T19:15:12.834Z,79.71
2023-01-29T19:17:39.304Z,79.89
2023-01-29T19:20:06.203Z,79.90
2023-01-29T19:22:32.608Z,80.49
2023-01-29T19:24:59.088Z,80.94
2023-01-29T19:27:30.151Z,81.19
2023-01-29T19:29:58.054Z,81.22
2023-01-29T19:32:24.514Z,81.02
2023-01-29T19:34:51.467Z,80.96
2023-01-29T19:37:17.851Z,81.52
2023-01-29T19:39:44.183Z,81.58
2023-01-29T19:42:10.648Z,81.44
2023-01-29T19:44:38.931Z,81.31
2023-01-29T19:47:05.688Z,81.32
2023-01-29T19:49:33.939Z,81.07
2023-01-29T19:52:01.364Z,81.41
2023-01-29T19:54:28.156Z,81.11
2023-01-29T19:56:54.970Z,81.06
2023-01-29T19:59:21.444Z,80.75
2023-01-29T20:01:47.914Z,81.16
2023-01-29T20:04:14.287Z,81.46
2023-01-29T20:06:40.738Z,81.25
2023-01-29T20:09:07.297Z,81.50
2023-01-29T20:11:33.846Z,82.91
2023-01-29T20:14:00.247Z,83.53
2023-01-29T20:16:26.835Z,84.36
2023-01-29T20:18:53.236Z,84.72
2023-01-29T20:21:21.872Z,84.88
2023-01-29T20:23:50.102Z,85.31
2023-01-29T20:26:17.386Z,85.56
2023-01-29T20:28:46.359Z,85.70
2023-01-29T20:31:12.909Z,85.34
2023-01-29T20:33:40.282Z,85.33
2023-01-29T20:36:09.915Z,85.30
2023-01-29T20:38:36.504Z,85.59
2023-01-29T20:41:17.284Z,85.57
2023-01-29T20:43:45.133Z,85.55
2023-01-29T20:46:11.990Z,85.96
2023-01-29T20:48:38.573Z,85.63
2023-01-29T20:51:09.206Z,85.90
2023-01-29T20:53:36.872Z,86.08
2023-01-29T20:56:04.483Z,85.89
2023-01-29T20:58:31.267Z,86.39
2023-01-29T21:00:57.894Z,86.22
2023-01-29T21:03:24.253Z,86.37
2023-01-29T21:05:51.558Z,86.41
2023-01-29T21:08:17.975Z,86.31
2023-01-29T21:10:45.326Z,86.49
2023-01-29T21:13:12.154Z,86.35
2023-01-29T21:15:38.630Z,86.04
2023-01-29T21:18:06.573Z,86.06
2023-01-29T21:20:33.010Z,85.73
2023-01-29T21:22:59.444Z,86.05
2023-01-29T21:25:25.835Z,86.26
2023-01-29T21:27:52.200Z,85.93
2023-01-29T21:30:19.149Z,85.97
2023-01-29T21:32:46.047Z,86.08
2023-01-29T21:35:12.430Z,86.22
2023-01-29T21:37:38.854Z,86.19
2023-01-29T21:40:06.334Z,86.15
2023-01-29T21:42:51.070Z,86.02
2023-01-29T21:45:18.251Z,86.20
2023-01-29T21:47:44.876Z,86.24
2023-01-29T21:50:11.292Z,86.23
2023-01-29T21:52:38.091Z,86.05
2023-01-29T21:55:05.655Z,86.57
2023-01-29T21:57:32.048Z,86.58
2023-01-29T21:59:59.363Z,86.22
2023-01-29T22:02:27.632Z,86.83
2023-01-29T22:05:05.334Z,86.66
2023-01-29T22:07:42.714Z,86.89
2023-01-29T22:10:10.186Z,87.33
2023-01-29T22:12:36.568Z,87.13
2023-01-29T22:15:03.431Z,87.59
2023-01-29T22:17:29.923Z,87.48
2023-01-29T22:19:56.313Z,87.91
2023-01-29T22:22:22.854Z,87.66
2023-01-29T22:24:50.743Z,88.43
2023-01-29T22:27:17.145Z,88.66
2023-01-29T22:29:43.855Z,88.55
2023-01-29T22:32:11.313Z,88.72
2023-01-29T22:34:37.716Z,88.81
2023-01-29T22:37:04.182Z,89.02
2023-01-29T22:39:30.582Z,89.18
2023-01-29T22:41:56.972Z,89.19
2023-01-29T22:44:23.399Z,89.18
2023-01-29T22:46:50.417Z,89.63
2023-01-29T22:49:17.276Z,89.71
2023-01-29T22:51:43.648Z,89.64
2023-01-29T22:54:11.507Z,89.84
2023-01-29T22:56:38.028Z,89.95
2023-01-29T22:59:04.476Z,89.41
2023-01-29T23:01:31.887Z,89.95
2023-01-29T23:03:58.334Z,90.07
2023-01-29T23:06:24.886Z,90.12
2023-01-29T23:08:51.354Z,90.06
2023-01-29T23:11:20.464Z,90.00
2023-01-29T23:13:48.097Z,89.68
2023-01-29T23:16:16.423Z,90.18
2023-01-29T23:18:43.708Z,90.41
2023-01-29T23:21:11.027Z,90.44
2023-01-29T23:23:38.539Z,90.52
2023-01-29T23:26:25.452Z,90.45
2023-01-29T23:28:52.080Z,90.45
2023-01-29T23:31:18.565Z,90.74
2023-01-29T23:33:45.329Z,90.70
2023-01-29T23:36:11.882Z,90.75
2023-01-29T23:38:38.278Z,90.90
2023-01-29T23:41:04.780Z,91.08
2023-01-29T23:43:31.213Z,90.73
2023-01-29T23:45:57.867Z,90.87
2023-01-29T23:48:24.441Z,90.77
2023-01-29T23:50:51.255Z,91.18
2023-01-29T23:53:18.167Z,91.29
2023-01-29T23:56:01.797Z,91.19
2023-01-29T23:58:29.088Z,91.27
